createdAt,value
2018-12-30T08:39:40.037Z,3.10
2018-12-30T08:42:06.748Z,3.20
2018-12-30T08:44:33.488Z,3.10
2018-12-30T08:47:00.232Z,3.20
2018-12-30T08:49:26.640Z,3.20
2018-12-30T08:51:53.024Z,3.20
2018-12-30T08:54:19.749Z,3.20
2018-12-30T08:56:46.154Z,3.20
2018-12-30T08:59:12.467Z,3.20
2018-12-30T09:01:38.956Z,3.20
2018-12-30T09:04:05.300Z,3.20
2018-12-30T09:06:31.652Z,3.20
2018-12-30T09:09:01.007Z,3.20
2018-12-30T09:11:27.493Z,3.20
2018-12-30T09:13:54.070Z,3.20
2018-12-30T09:16:20.615Z,3.20
2018-12-30T09:18:47.034Z,3.30
2018-12-30T09:21:13.684Z,3.30
2018-12-30T09:23:40.233Z,3.40
2018-12-30T09:26:06.574Z,3.40
2018-12-30T09:28:32.966Z,3.40
2018-12-30T09:30:59.338Z,3.40
2018-12-30T09:33:25.608Z,3.40
2018-12-30T09:35:51.955Z,3.40
2018-12-30T09:38:18.523Z,3.40
2018-12-30T09:40:44.908Z,3.40
2018-12-30T09:43:11.162Z,3.40
2018-12-30T09:45:37.510Z,3.40
2018-12-30T09:48:04.161Z,3.40
2018-12-30T09:50:30.411Z,3.40
2018-12-30T09:52:56.784Z,3.40
2018-12-30T09:55:23.121Z,3.50
2018-12-30T09:57:49.491Z,3.50
2018-12-30T10:00:16.156Z,3.60
2018-12-30T10:02:42.793Z,3.60
2018-12-30T10:05:09.424Z,3.70
2018-12-30T10:07:35.950Z,3.70
2018-12-30T10:10:03.714Z,3.70
2018-12-30T10:12:30.099Z,3.80
2018-12-30T10:14:56.674Z,3.80
2018-12-30T10:17:23.381Z,3.90
2018-12-30T10:19:49.746Z,3.90
2018-12-30T10:22:16.377Z,4.00
2018-12-30T10:24:42.787Z,4.10
2018-12-30T10:27:13.267Z,4.10
2018-12-30T10:29:39.660Z,4.10
2018-12-30T10:32:06.250Z,4.10
2018-12-30T10:34:33.165Z,4.10
2018-12-30T10:36:59.536Z,4.10
2018-12-30T10:39:26.145Z,4.10
2018-12-30T10:41:52.646Z,4.10
2018-12-30T10:44:18.944Z,4.10
2018-12-30T10:46:45.666Z,4.10
2018-12-30T10:49:12.020Z,4.10
2018-12-30T10:51:38.260Z,4.20
2018-12-30T10:54:04.543Z,4.20
2018-12-30T10:56:30.805Z,4.30
2018-12-30T10:58:57.315Z,4.30
2018-12-30T11:01:23.567Z,4.40
2018-12-30T11:03:49.835Z,4.40
2018-12-30T11:06:16.522Z,4.40
2018-12-30T11:08:43.331Z,4.30
2018-12-30T11:11:09.583Z,4.30
2018-12-30T11:13:35.864Z,4.20
2018-12-30T11:16:02.202Z,4.20
2018-12-30T11:18:28.825Z,4.10
2018-12-30T11:20:55.199Z,4.20
2018-12-30T11:23:21.561Z,4.30
2018-12-30T11:25:47.937Z,4.30
2018-12-30T11:28:14.623Z,4.40
2018-12-30T11:30:40.988Z,4.40
2018-12-30T11:33:07.366Z,4.40
2018-12-30T11:35:33.844Z,4.40
2018-12-30T11:38:00.940Z,4.40
2018-12-30T11:40:27.615Z,4.40
2018-12-30T11:42:53.859Z,4.50
2018-12-30T11:45:20.793Z,4.50
2018-12-30T11:47:47.030Z,4.50
2018-12-30T11:50:13.700Z,4.50
2018-12-30T11:52:39.951Z,4.50
2018-12-30T11:55:06.328Z,4.60
2018-12-30T11:57:32.695Z,4.60
2018-12-30T12:00:06.054Z,4.60
2018-12-30T12:02:32.435Z,4.60
2018-12-30T12:04:59.029Z,4.70
2018-12-30T12:07:25.350Z,4.70
2018-12-30T12:09:51.807Z,4.60
2018-12-30T12:12:18.064Z,4.60
2018-12-30T12:14:44.451Z,4.60
2018-12-30T12:17:10.703Z,4.60
2018-12-30T12:19:37.080Z,4.70
2018-12-30T12:22:03.426Z,4.60
2018-12-30T12:24:30.144Z,4.60
2018-12-30T12:26:57.396Z,4.60
2018-12-30T12:29:24.087Z,4.60
2018-12-30T12:31:50.386Z,4.50
2018-12-30T12:34:17.593Z,4.50
2018-12-30T12:36:43.942Z,4.50
2018-12-30T12:39:10.291Z,4.50
2018-12-30T12:41:36.987Z,4.40
2018-12-30T12:44:03.327Z,4.40
2018-12-30T12:46:29.835Z,4.40
2018-12-30T12:48:56.479Z,4.30
2018-12-30T12:51:23.073Z,4.30
2018-12-30T12:53:49.660Z,4.40
2018-12-30T12:56:15.981Z,4.40
2018-12-30T12:58:42.372Z,4.40
2018-12-30T13:01:09.242Z,4.40
2018-12-30T13:03:35.573Z,4.30
2018-12-30T13:06:01.853Z,4.30
2018-12-30T13:08:28.594Z,4.30
2018-12-30T13:10:55.203Z,4.30
2018-12-30T13:13:21.690Z,4.30
2018-12-30T13:15:47.965Z,4.30
2018-12-30T13:18:14.308Z,4.30
2018-12-30T13:20:40.684Z,4.30
2018-12-30T13:23:06.942Z,4.30
2018-12-30T13:25:34.202Z,4.30
2018-12-30T13:28:00.437Z,4.20
2018-12-30T13:30:28.083Z,4.20
2018-12-30T13:32:54.336Z,4.20
2018-12-30T13:35:20.883Z,4.20
2018-12-30T13:37:47.235Z,4.20
2018-12-30T13:40:13.733Z,4.10
2018-12-30T13:42:40.123Z,4.10
2018-12-30T13:45:06.517Z,4.10
2018-12-30T13:47:32.893Z,4.10
2018-12-30T13:49:59.509Z,4.10
2018-12-30T13:52:25.904Z,4.10
2018-12-30T13:54:52.254Z,4.00
2018-12-30T13:57:18.748Z,4.00
2018-12-30T13:59:45.110Z,4.00
2018-12-30T14:02:11.454Z,4.00
2018-12-30T14:04:37.832Z,4.00
2018-12-30T14:07:04.498Z,4.00
2018-12-30T14:09:30.844Z,4.00
2018-12-30T14:11:57.232Z,3.90
2018-12-30T14:14:24.490Z,3.90
2018-12-30T14:16:51.139Z,3.90
2018-12-30T14:19:17.396Z,3.90
2018-12-30T14:21:43.780Z,3.90
2018-12-30T14:24:10.358Z,3.90
2018-12-30T14:26:37.753Z,3.80
2018-12-30T14:29:04.426Z,3.80
2018-12-30T14:31:31.055Z,3.80
2018-12-30T14:33:57.403Z,3.90
2018-12-30T14:36:23.675Z,3.80
2018-12-30T14:38:50.246Z,3.80
2018-12-30T14:41:16.608Z,3.80
2018-12-30T14:43:42.962Z,3.80
2018-12-30T14:46:09.226Z,3.80
2018-12-30T14:48:35.886Z,3.80
2018-12-30T14:51:02.148Z,3.70
2018-12-30T14:53:28.426Z,3.70
2018-12-30T14:55:54.688Z,3.70
2018-12-30T14:58:20.966Z,3.70
2018-12-30T15:00:47.818Z,3.70
2018-12-30T15:03:14.498Z,3.70
2018-12-30T15:05:40.844Z,3.60
2018-12-30T15:08:07.183Z,3.60
2018-12-30T15:10:33.607Z,3.60
2018-12-30T15:12:59.996Z,3.60
2018-12-30T15:15:26.320Z,3.50
2018-12-30T15:17:52.703Z,3.50
2018-12-30T15:20:19.051Z,3.50
2018-12-30T15:22:45.546Z,3.50
2018-12-30T15:25:12.233Z,3.50
2018-12-30T15:27:38.643Z,3.50
2018-12-30T15:30:06.894Z,3.50
2018-12-30T15:32:33.253Z,3.50
2018-12-30T15:34:59.635Z,3.40
2018-12-30T15:37:25.872Z,3.40
2018-12-30T15:39:52.147Z,3.40
2018-12-30T15:42:19.201Z,3.40
2018-12-30T15:44:45.688Z,3.40
2018-12-30T15:47:12.036Z,3.40
2018-12-30T15:49:38.557Z,3.40
2018-12-30T15:52:04.940Z,3.40
2018-12-30T15:54:31.284Z,3.40
2018-12-30T15:56:57.557Z,3.40
2018-12-30T15:59:24.057Z,3.30
2018-12-30T16:01:50.660Z,3.40
2018-12-30T16:04:17.324Z,3.30
2018-12-30T16:06:43.658Z,3.40
2018-12-30T16:09:10.011Z,3.40
2018-12-30T16:11:36.355Z,3.40
2018-12-30T16:14:02.627Z,3.40
2018-12-30T16:16:28.953Z,3.30
2018-12-30T16:18:55.581Z,3.40
2018-12-30T16:21:22.199Z,3.30
2018-12-30T16:23:48.564Z,3.40
2018-12-30T16:26:14.915Z,3.40
2018-12-30T16:28:41.180Z,3.30
2018-12-30T16:31:07.566Z,3.30
2018-12-30T16:33:34.179Z,3.30
2018-12-30T16:36:00.438Z,3.30
2018-12-30T16:38:26.671Z,3.30
2018-12-30T16:40:52.961Z,3.30
2018-12-30T16:43:19.288Z,3.30
2018-12-30T16:45:45.645Z,3.30
2018-12-30T16:48:12.262Z,3.30
2018-12-30T16:50:38.524Z,3.30
2018-12-30T16:53:04.855Z,3.30
2018-12-30T16:55:34.817Z,3.30
2018-12-30T16:57:59.575Z,3.30
2018-12-30T17:00:25.967Z,3.30
2018-12-30T17:02:52.336Z,3.30
2018-12-30T17:05:18.868Z,3.30
2018-12-30T17:07:45.468Z,3.30
2018-12-30T17:10:11.931Z,3.30
2018-12-30T17:12:38.446Z,3.20
2018-12-30T17:15:07.067Z,3.20
2018-12-30T17:17:33.672Z,3.30
2018-12-30T17:20:00.228Z,3.20
2018-12-30T17:22:26.459Z,3.20
2018-12-30T17:24:52.708Z,3.20
2018-12-30T17:27:19.163Z,3.20
2018-12-30T17:29:45.524Z,3.20
2018-12-30T17:32:11.936Z,3.20
2018-12-30T17:34:38.571Z,3.20
2018-12-30T17:37:04.848Z,3.20
2018-12-30T17:39:31.363Z,3.20
2018-12-30T17:41:57.979Z,3.20
2018-12-30T17:44:24.207Z,3.20
2018-12-30T17:46:50.492Z,3.20
2018-12-30T17:49:16.725Z,3.20
2018-12-30T17:51:43.367Z,3.20
2018-12-30T17:54:15.200Z,3.20
2018-12-30T17:56:38.407Z,3.20
2018-12-30T17:59:04.932Z,3.10
2018-12-30T18:01:31.283Z,3.10
2018-12-30T18:03:57.625Z,3.10
2018-12-30T18:06:24.171Z,3.10
2018-12-30T18:08:50.425Z,3.10
2018-12-30T18:11:17.086Z,3.10
2018-12-30T18:13:43.324Z,3.00
2018-12-30T18:16:09.984Z,3.10
2018-12-30T18:18:36.243Z,3.10
2018-12-30T18:21:02.770Z,3.00
2018-12-30T18:23:29.019Z,3.00
2018-12-30T18:25:58.723Z,3.00
2018-12-30T18:28:23.638Z,3.00
2018-12-30T18:30:50.028Z,3.00
2018-12-30T18:33:16.387Z,3.00
2018-12-30T18:35:42.788Z,3.00
2018-12-30T18:38:09.153Z,3.10
2018-12-30T18:40:35.493Z,3.00
2018-12-30T18:43:01.839Z,3.00
2018-12-30T18:45:28.471Z,3.00
2018-12-30T18:47:54.743Z,3.00
2018-12-30T18:50:20.992Z,3.00
2018-12-30T18:52:47.385Z,3.00
2018-12-30T18:55:14.317Z,3.00
2018-12-30T18:57:40.732Z,3.00
2018-12-30T19:00:08.401Z,3.00
2018-12-30T19:02:34.763Z,3.00
2018-12-30T19:05:01.007Z,3.00
2018-12-30T19:07:27.284Z,3.00
2018-12-30T19:09:54.102Z,3.00
2018-12-30T19:12:20.377Z,3.00
2018-12-30T19:14:46.861Z,3.00
2018-12-30T19:17:13.230Z,3.00
2018-12-30T19:19:39.469Z,3.00
2018-12-30T19:22:05.860Z,3.00
2018-12-30T19:24:32.195Z,3.00
2018-12-30T19:26:58.750Z,3.00
2018-12-30T19:29:25.262Z,3.00
2018-12-30T19:31:51.795Z,3.00
2018-12-30T19:34:18.065Z,3.00
2018-12-30T19:36:44.704Z,3.00
2018-12-30T19:39:10.950Z,3.00
2018-12-30T19:41:37.196Z,2.90
2018-12-30T19:44:03.820Z,2.90
2018-12-30T19:46:30.066Z,2.90
2018-12-30T19:48:56.432Z,2.90
2018-12-30T19:51:22.678Z,2.90
2018-12-30T19:53:48.958Z,2.90
2018-12-30T19:56:21.739Z,2.90
2018-12-30T19:58:43.475Z,2.90
2018-12-30T20:01:09.922Z,2.90
2018-12-30T20:03:36.215Z,2.90
2018-12-30T20:06:02.468Z,2.90
2018-12-30T20:08:28.832Z,2.90
2018-12-30T20:10:55.174Z,2.90
2018-12-30T20:13:21.815Z,2.90
2018-12-30T20:15:48.189Z,2.90
2018-12-30T20:18:14.560Z,2.90
2018-12-30T20:20:40.888Z,2.90
2018-12-30T20:23:07.190Z,2.90
2018-12-30T20:25:35.370Z,2.90
2018-12-30T20:28:01.783Z,2.90
2018-12-30T20:30:28.023Z,2.90
2018-12-30T20:32:54.325Z,2.90
2018-12-30T20:35:20.847Z,2.90
2018-12-30T20:37:47.221Z,2.90
2018-12-30T20:40:13.571Z,2.90
2018-12-30T20:42:39.850Z,2.90
2018-12-30T20:45:06.275Z,2.90
2018-12-30T20:47:32.820Z,2.90
2018-12-30T20:49:59.207Z,2.90
2018-12-30T20:52:25.570Z,2.90
2018-12-30T20:54:51.950Z,2.90
2018-12-30T20:57:18.292Z,2.90
2018-12-30T20:59:46.726Z,2.90
2018-12-30T21:02:13.095Z,2.90
2018-12-30T21:04:39.723Z,2.90
2018-12-30T21:07:08.068Z,2.90
2018-12-30T21:09:34.423Z,2.90
2018-12-30T21:12:02.115Z,2.90
2018-12-30T21:14:28.507Z,2.90
2018-12-30T21:16:54.869Z,2.90
2018-12-30T21:19:21.528Z,3.00
2018-12-30T21:21:47.893Z,3.00
2018-12-30T21:24:14.537Z,2.90
2018-12-30T21:26:45.412Z,3.00
2018-12-30T21:29:09.472Z,3.00
2018-12-30T21:31:35.747Z,3.00
2018-12-30T21:34:02.177Z,2.90
2018-12-30T21:36:28.462Z,2.90
2018-12-30T21:38:55.085Z,3.00
2018-12-30T21:41:21.527Z,3.00
2018-12-30T21:43:48.155Z,3.00
2018-12-30T21:46:14.507Z,3.00
2018-12-30T21:48:40.779Z,3.00
2018-12-30T21:51:07.136Z,2.90
2018-12-30T21:53:33.679Z,2.90
2018-12-30T21:56:00.151Z,2.90
2018-12-30T21:58:26.768Z,2.90
2018-12-30T22:00:53.324Z,2.90
2018-12-30T22:03:19.953Z,2.90
2018-12-30T22:05:46.382Z,3.00
2018-12-30T22:08:12.995Z,2.90
2018-12-30T22:10:39.379Z,2.90
2018-12-30T22:13:05.634Z,2.90
2018-12-30T22:15:31.929Z,2.90
2018-12-30T22:17:58.266Z,2.90
2018-12-30T22:20:24.636Z,2.90
2018-12-30T22:22:51.406Z,2.90
2018-12-30T22:25:18.470Z,2.90
2018-12-30T22:27:44.809Z,2.90
2018-12-30T22:30:11.195Z,2.90
2018-12-30T22:32:37.465Z,2.90
2018-12-30T22:35:04.743Z,2.90
2018-12-30T22:37:31.092Z,2.90
2018-12-30T22:39:57.724Z,2.90
2018-12-30T22:42:23.965Z,2.90
2018-12-30T22:44:50.427Z,2.90
2018-12-30T22:47:16.787Z,2.90
2018-12-30T22:49:43.278Z,2.90
2018-12-30T22:52:09.623Z,2.90
2018-12-30T22:54:35.901Z,2.90
2018-12-30T22:57:02.483Z,2.90
2018-12-30T22:59:28.868Z,2.90
2018-12-30T23:01:55.474Z,2.90
2018-12-30T23:04:21.999Z,2.90
2018-12-30T23:06:48.583Z,2.90
2018-12-30T23:09:15.311Z,2.90
2018-12-30T23:11:41.717Z,2.90
2018-12-30T23:14:08.115Z,2.90
2018-12-30T23:16:34.772Z,2.90
2018-12-30T23:19:01.096Z,2.90
2018-12-30T23:21:27.367Z,2.80
2018-12-30T23:23:53.620Z,2.90
2018-12-30T23:26:20.250Z,2.90
2018-12-30T23:28:47.551Z,2.90
2018-12-30T23:31:14.372Z,2.80
2018-12-30T23:33:46.552Z,2.80
2018-12-30T23:36:13.959Z,2.80
2018-12-30T23:38:41.376Z,2.90
2018-12-30T23:41:07.878Z,2.90
2018-12-30T23:43:34.220Z,2.80
2018-12-30T23:46:05.655Z,2.80
2018-12-30T23:48:31.987Z,2.90
2018-12-30T23:50:58.625Z,2.90
2018-12-30T23:53:25.163Z,2.80
2018-12-30T23:55:51.435Z,2.80
2018-12-30T23:58:17.772Z,2.90
